createdAt,value
2019-03-30T00:02:26.872Z,99.07
2019-03-30T00:04:56.583Z,91.63
2019-03-30T00:07:26.311Z,95.20
2019-03-30T00:09:56.798Z,87.88
2019-03-30T00:12:26.353Z,88.80
2019-03-30T00:14:55.879Z,104.35
2019-03-30T00:17:25.328Z,95.77
2019-03-30T00:19:54.858Z,85.90
2019-03-30T00:22:24.439Z,90.22
2019-03-30T00:24:53.982Z,92.30
2019-03-30T00:27:23.591Z,93.92
2019-03-30T00:29:53.349Z,98.70
2019-03-30T00:32:22.961Z,83.78
2019-03-30T00:34:53.240Z,98.55
2019-03-30T00:37:24.142Z,89.55
2019-03-30T01:56:04.674Z,87.90
2019-03-30T03:39:16.701Z,88.00
2019-03-30T03:45:08.035Z,88.07
2019-03-30T03:47:59.468Z,87.67
2019-03-30T03:50:45.836Z,89.70
2019-03-30T03:53:19.445Z,84.67
2019-03-30T03:55:52.980Z,88.82
2019-03-30T03:58:27.273Z,88.50
2019-03-30T04:01:02.915Z,81.35
2019-03-30T04:03:40.708Z,95.38
2019-03-30T04:06:16.365Z,96.78
2019-03-30T04:08:51.221Z,87.53
2019-03-30T04:11:41.419Z,81.78
2019-03-30T04:14:15.659Z,81.90
2019-03-30T04:16:50.531Z,84.85
2019-03-30T04:19:21.770Z,81.37
2019-03-30T04:21:52.237Z,84.58
2019-03-30T04:24:25.853Z,87.75
2019-03-30T04:27:19.395Z,87.97
2019-03-30T04:29:54.988Z,86.10
2019-03-30T04:32:29.961Z,84.22
2019-03-30T04:35:09.364Z,84.60
2019-03-30T04:38:20.781Z,81.10
2019-03-30T04:41:23.617Z,84.62
2019-03-30T04:44:41.341Z,86.78
2019-03-30T06:12:52.642Z,84.47
2019-03-30T06:15:29.141Z,82.60
2019-03-30T06:18:18.409Z,84.45
2019-03-30T06:20:59.181Z,80.00
2019-03-30T06:30:15.745Z,77.90
2019-03-30T06:32:46.033Z,74.62
2019-03-30T06:38:43.640Z,70.15
2019-03-30T06:41:23.133Z,74.62
2019-03-30T06:47:59.930Z,67.25
2019-03-30T06:54:26.712Z,67.87
2019-03-30T06:56:55.576Z,65.03
2019-03-30T06:59:29.934Z,61.90
2019-03-30T07:02:12.563Z,71.57
2019-03-30T07:08:47.986Z,66.05
2019-03-30T07:11:40.830Z,60.50
2019-03-30T07:14:10.394Z,58.68
2019-03-30T07:17:06.578Z,65.92
2019-03-30T07:19:44.855Z,61.45
2019-03-30T07:22:53.276Z,60.92
2019-03-30T07:25:48.612Z,64.58
2019-03-30T07:28:18.534Z,66.17
2019-03-30T07:35:27.867Z,61.58
2019-03-30T07:38:10.298Z,62.62
2019-03-30T07:41:05.930Z,53.95
2019-03-30T07:44:27.555Z,49.85
2019-03-30T07:53:53.408Z,42.90
2019-03-30T07:56:23.271Z,40.43
2019-03-30T07:59:03.006Z,38.98
2019-03-30T08:02:04.040Z,38.42
2019-03-30T08:12:17.682Z,37.40
2019-03-30T08:16:16.021Z,37.38
2019-03-30T08:19:33.135Z,36.00
2019-03-30T08:32:10.003Z,31.80
2019-03-30T08:34:39.989Z,32.70
2019-03-30T08:37:09.882Z,32.75
2019-03-30T08:39:42.279Z,36.80
2019-03-30T08:42:34.138Z,27.95
2019-03-30T08:45:26.048Z,31.17
2019-03-30T08:48:01.207Z,30.72
2019-03-30T08:50:30.665Z,29.52
2019-03-30T08:53:00.247Z,29.77
2019-03-30T08:55:30.156Z,25.50
2019-03-30T08:58:00.143Z,27.00
2019-03-30T09:03:28.024Z,27.22
2019-03-30T09:05:57.867Z,30.40
2019-03-30T09:08:27.534Z,24.25
2019-03-30T09:10:57.047Z,27.40
2019-03-30T09:13:26.760Z,27.80
2019-03-30T09:15:59.329Z,29.25
2019-03-30T09:18:28.915Z,30.55
2019-03-30T09:21:02.131Z,28.70
2019-03-30T09:23:31.784Z,27.17
2019-03-30T09:26:01.401Z,26.27
2019-03-30T09:28:30.931Z,26.55
2019-03-30T09:31:00.333Z,25.70
2019-03-30T09:33:29.903Z,28.87
2019-03-30T09:35:59.424Z,27.48
2019-03-30T09:38:29.091Z,26.97
2019-03-30T09:40:58.772Z,27.22
2019-03-30T09:43:28.558Z,25.72
2019-03-30T09:45:58.202Z,27.20
2019-03-30T09:48:27.706Z,26.95
2019-03-30T09:50:57.161Z,30.00
2019-03-30T09:53:26.746Z,29.12
2019-03-30T09:55:56.271Z,28.20
2019-03-30T09:58:25.795Z,26.65
2019-03-30T10:00:55.425Z,26.33
2019-03-30T10:03:25.306Z,26.77
2019-03-30T10:06:37.463Z,26.73
2019-03-30T10:09:35.985Z,25.43
2019-03-30T10:12:06.017Z,27.75
2019-03-30T10:14:36.050Z,25.80
2019-03-30T10:17:05.704Z,26.40
2019-03-30T10:19:35.564Z,27.17
2019-03-30T10:22:07.477Z,29.15
2019-03-30T10:24:38.764Z,27.10
2019-03-30T10:27:11.377Z,25.60
2019-03-30T10:29:41.267Z,28.25
2019-03-30T10:32:10.963Z,26.20
2019-03-30T10:34:40.638Z,25.90
2019-03-30T10:37:10.762Z,26.05
2019-03-30T10:39:55.599Z,28.60
2019-03-30T10:42:25.207Z,27.58
2019-03-30T10:44:55.560Z,26.57
2019-03-30T10:50:19.231Z,27.22
2019-03-30T10:52:49.615Z,35.10
2019-03-30T10:55:19.648Z,29.80
2019-03-30T10:57:50.132Z,27.90
2019-03-30T11:00:45.180Z,29.18
2019-03-30T11:07:00.154Z,29.87
2019-03-30T11:09:29.811Z,33.28
2019-03-30T11:11:59.396Z,29.10
2019-03-30T11:14:29.019Z,31.60
2019-03-30T11:16:58.526Z,28.40
2019-03-30T11:19:48.333Z,28.15
2019-03-30T11:22:19.065Z,30.75
2019-03-30T11:25:06.222Z,30.83
2019-03-30T11:31:26.572Z,34.10
2019-03-30T11:35:58.071Z,28.20
2019-03-30T11:37:55.267Z,34.33
2019-03-30T11:40:43.239Z,30.63
2019-03-30T11:43:22.431Z,34.90
2019-03-30T11:46:50.780Z,28.97
2019-03-30T11:49:20.785Z,28.27
2019-03-30T11:51:50.622Z,26.68
2019-03-30T11:54:20.313Z,23.73
2019-03-30T11:56:49.972Z,22.52
2019-03-30T11:59:19.643Z,23.10
2019-03-30T12:01:49.040Z,23.57
2019-03-30T12:04:18.523Z,22.17
2019-03-30T12:06:51.609Z,22.80
2019-03-30T12:09:21.880Z,25.77
2019-03-30T12:11:54.437Z,23.60
2019-03-30T12:14:27.346Z,25.57
2019-03-30T12:16:56.778Z,21.07
2019-03-30T12:19:26.247Z,24.30
2019-03-30T12:21:55.663Z,27.23
2019-03-30T12:24:25.650Z,21.70
2019-03-30T12:26:55.659Z,25.07
2019-03-30T12:29:25.546Z,25.23
2019-03-30T12:31:58.363Z,21.87
2019-03-30T12:34:28.051Z,24.97
2019-03-30T12:36:58.331Z,20.27
2019-03-30T12:39:28.128Z,22.73
2019-03-30T12:41:57.966Z,21.40
2019-03-30T12:44:27.479Z,20.60
2019-03-30T12:46:57.164Z,21.83
2019-03-30T12:49:26.726Z,23.07
2019-03-30T12:51:57.309Z,22.33
2019-03-30T12:54:26.919Z,19.60
2019-03-30T12:56:59.565Z,26.37
2019-03-30T12:59:37.698Z,20.23
2019-03-30T13:02:07.515Z,20.20
2019-03-30T13:04:37.095Z,22.60
2019-03-30T13:07:06.706Z,18.60
2019-03-30T13:09:36.271Z,23.43
2019-03-30T13:12:05.667Z,18.33
2019-03-30T13:14:38.474Z,18.80
2019-03-30T13:17:07.920Z,19.13
2019-03-30T13:19:37.599Z,21.80
2019-03-30T13:22:07.510Z,21.53
2019-03-30T13:24:37.077Z,19.33
2019-03-30T13:27:06.673Z,17.87
2019-03-30T13:29:36.125Z,18.77
2019-03-30T13:32:06.440Z,15.00
2019-03-30T13:34:35.878Z,16.23
2019-03-30T13:37:18.200Z,18.23
2019-03-30T13:39:48.057Z,15.07
2019-03-30T13:42:17.706Z,12.80
2019-03-30T13:44:47.471Z,15.60
2019-03-30T13:47:17.065Z,16.27
2019-03-30T13:49:46.672Z,16.83
2019-03-30T13:52:16.151Z,15.37
2019-03-30T13:54:45.692Z,18.27
2019-03-30T13:57:15.434Z,15.63
2019-03-30T13:59:45.123Z,15.30
2019-03-30T14:02:14.827Z,14.40
2019-03-30T14:04:44.527Z,14.40
2019-03-30T14:07:15.609Z,15.73
2019-03-30T14:09:45.176Z,15.93
2019-03-30T14:12:17.298Z,17.63
2019-03-30T14:14:47.245Z,14.50
2019-03-30T14:17:20.296Z,14.33
2019-03-30T14:19:52.297Z,13.90
2019-03-30T14:22:22.417Z,15.10
2019-03-30T14:24:51.938Z,14.80
2019-03-30T14:27:21.776Z,14.00
2019-03-30T14:29:54.295Z,15.07
2019-03-30T14:32:22.842Z,13.93
2019-03-30T14:34:52.631Z,14.03
2019-03-30T14:37:22.042Z,14.57
2019-03-30T14:39:51.704Z,15.80
2019-03-30T14:42:21.360Z,14.00
2019-03-30T14:45:02.736Z,14.17
2019-03-30T14:47:32.435Z,14.50
2019-03-30T14:50:02.979Z,14.30
2019-03-30T14:52:32.569Z,13.47
2019-03-30T14:55:20.591Z,10.23
2019-03-30T14:58:48.231Z,13.87
2019-03-30T15:01:18.026Z,12.93
2019-03-30T15:03:47.813Z,13.50
2019-03-30T15:06:17.533Z,14.00
2019-03-30T15:08:48.510Z,14.10
2019-03-30T15:11:18.278Z,14.50
2019-03-30T15:13:51.478Z,15.67
2019-03-30T15:16:23.758Z,13.90
2019-03-30T15:18:54.682Z,15.17
2019-03-30T15:21:26.756Z,12.47
2019-03-30T15:24:15.286Z,13.70
2019-03-30T15:26:59.336Z,13.23
2019-03-30T15:29:18.801Z,14.07
2019-03-30T15:31:48.412Z,14.07
2019-03-30T15:34:18.111Z,13.20
2019-03-30T15:36:47.713Z,15.83
2019-03-30T15:39:39.873Z,16.77
2019-03-30T15:42:09.631Z,17.93
2019-03-30T15:44:40.048Z,16.30
2019-03-30T15:47:09.963Z,17.73
2019-03-30T15:49:43.050Z,16.57
2019-03-30T15:52:37.029Z,18.33
2019-03-30T15:55:06.915Z,17.50
2019-03-30T15:57:36.918Z,17.67
2019-03-30T16:00:08.593Z,17.23
2019-03-30T16:02:38.534Z,16.57
2019-03-30T16:05:16.407Z,18.77
2019-03-30T16:10:53.131Z,14.43
2019-03-30T16:13:23.714Z,16.40
2019-03-30T16:15:53.433Z,14.33
2019-03-30T16:18:23.380Z,15.27
2019-03-30T16:20:53.501Z,15.27
2019-03-30T16:23:23.412Z,15.08
2019-03-30T16:25:52.978Z,15.72
2019-03-30T16:28:22.638Z,16.90
2019-03-30T16:30:52.444Z,17.90
2019-03-30T16:33:22.338Z,13.53
2019-03-30T16:35:52.262Z,14.75
2019-03-30T16:38:22.126Z,14.20
2019-03-30T16:40:52.062Z,12.73
2019-03-30T16:43:21.675Z,14.13
2019-03-30T16:45:51.504Z,13.30
2019-03-30T16:48:21.211Z,12.88
2019-03-30T16:50:50.952Z,12.10
2019-03-30T16:53:20.518Z,15.32
2019-03-30T16:55:50.172Z,14.00
2019-03-30T16:58:20.141Z,14.28
2019-03-30T17:00:56.771Z,12.78
2019-03-30T17:03:21.126Z,14.60
2019-03-30T17:05:50.937Z,13.38
2019-03-30T17:08:20.537Z,14.18
2019-03-30T17:10:50.234Z,12.90
2019-03-30T17:13:19.744Z,12.88
2019-03-30T17:15:49.480Z,13.83
2019-03-30T17:18:19.155Z,13.98
2019-03-30T17:20:48.743Z,14.07
2019-03-30T17:23:18.362Z,15.10
2019-03-30T17:25:50.378Z,14.60
2019-03-30T17:28:19.666Z,13.65
2019-03-30T17:30:49.387Z,13.80
2019-03-30T17:33:19.075Z,16.12
2019-03-30T17:35:49.119Z,18.98
2019-03-30T17:38:18.721Z,27.52
2019-03-30T17:40:48.444Z,33.75
2019-03-30T17:43:18.262Z,45.58
2019-03-30T17:45:48.153Z,50.48
2019-03-30T17:48:17.839Z,51.58
2019-03-30T17:50:47.514Z,52.25
2019-03-30T17:53:17.345Z,53.08
2019-03-30T17:55:46.923Z,52.05
2019-03-30T17:58:17.244Z,52.25
2019-03-30T18:00:47.768Z,56.83
2019-03-30T18:03:32.919Z,55.83
2019-03-30T18:06:02.258Z,52.75
2019-03-30T18:08:31.765Z,61.05
2019-03-30T18:11:04.085Z,60.88
2019-03-30T18:13:33.007Z,56.23
2019-03-30T18:16:02.903Z,63.75
2019-03-30T18:19:00.421Z,58.87
2019-03-30T18:21:30.439Z,62.83
2019-03-30T18:24:00.302Z,69.37
2019-03-30T18:26:31.870Z,67.92
2019-03-30T18:29:01.727Z,68.22
2019-03-30T18:31:31.437Z,65.32
2019-03-30T18:34:04.508Z,69.75
2019-03-30T18:36:36.058Z,66.82
2019-03-30T18:39:09.911Z,63.23
2019-03-30T18:41:38.758Z,65.47
2019-03-30T18:44:09.173Z,62.30
2019-03-30T18:46:39.481Z,59.50
2019-03-30T18:49:09.453Z,62.00
2019-03-30T18:51:46.733Z,66.25
2019-03-30T18:54:16.862Z,72.42
2019-03-30T18:57:09.488Z,71.30
2019-03-30T18:59:49.974Z,77.62
2019-03-30T19:02:19.703Z,81.20
2019-03-30T19:04:49.171Z,79.53
2019-03-30T19:07:18.946Z,95.50
2019-03-30T19:09:48.646Z,84.40
2019-03-30T19:12:18.185Z,91.17
2019-03-30T19:14:48.239Z,85.30
2019-03-30T19:17:17.725Z,81.72
2019-03-30T19:19:50.005Z,91.00
2019-03-30T19:22:18.507Z,92.15
2019-03-30T19:24:48.034Z,94.15
2019-03-30T19:27:17.446Z,93.42
2019-03-30T19:29:46.987Z,95.15
2019-03-30T19:32:16.429Z,103.55
2019-03-30T19:34:45.854Z,111.22
2019-03-30T19:37:15.407Z,119.80
2019-03-30T19:39:44.910Z,98.75
2019-03-30T19:42:15.960Z,111.83
2019-03-30T19:44:47.254Z,103.05
2019-03-30T19:47:16.897Z,94.87
2019-03-30T19:49:46.499Z,105.32
2019-03-30T19:52:16.035Z,90.62
2019-03-30T19:54:45.448Z,105.10
2019-03-30T19:57:14.918Z,96.55
2019-03-30T19:59:44.419Z,95.40
2019-03-30T20:02:14.062Z,81.50
2019-03-30T20:04:43.715Z,81.15
2019-03-30T20:07:13.484Z,91.10
2019-03-30T20:09:45.297Z,74.87
2019-03-30T20:12:17.360Z,81.10
2019-03-30T20:14:46.875Z,80.12
2019-03-30T20:17:16.404Z,83.35
2019-03-30T20:19:45.999Z,90.53
2019-03-30T20:22:15.414Z,82.40
2019-03-30T20:24:45.391Z,94.50
2019-03-30T20:27:15.140Z,84.22
2019-03-30T20:29:44.510Z,89.52
2019-03-30T20:32:14.214Z,85.10
2019-03-30T20:34:45.307Z,101.95
2019-03-30T20:37:14.907Z,94.25
2019-03-30T20:39:44.533Z,92.60
2019-03-30T20:42:14.131Z,91.42
2019-03-30T20:44:43.729Z,90.55
2019-03-30T20:47:15.798Z,87.97
2019-03-30T20:49:47.885Z,92.90
2019-03-30T20:52:17.313Z,96.22
2019-03-30T20:54:47.015Z,98.25
2019-03-30T20:57:16.831Z,96.35
2019-03-30T20:59:46.332Z,96.40
2019-03-30T21:02:15.809Z,96.00
2019-03-30T21:04:45.691Z,94.40
2019-03-30T21:07:15.603Z,107.35
2019-03-30T21:10:07.068Z,93.30
2019-03-30T21:12:37.317Z,98.70
2019-03-30T21:15:08.021Z,96.75
2019-03-30T21:17:37.656Z,94.90
2019-03-30T21:20:07.904Z,99.05
2019-03-30T21:22:37.640Z,100.87
2019-03-30T21:25:07.656Z,102.05
2019-03-30T21:27:37.231Z,102.10
2019-03-30T21:30:09.531Z,102.20
2019-03-30T21:32:58.576Z,109.07
2019-03-30T21:35:29.089Z,109.55
2019-03-30T21:38:18.362Z,110.15
2019-03-30T21:40:49.132Z,134.60
2019-03-30T21:43:21.325Z,118.15
2019-03-30T21:46:18.311Z,120.00
2019-03-30T21:48:49.588Z,116.80
2019-03-30T21:51:19.361Z,123.85
2019-03-30T21:53:49.128Z,122.82
2019-03-30T21:56:18.876Z,139.15
2019-03-30T21:58:48.609Z,121.15
2019-03-30T22:01:18.963Z,128.02
2019-03-30T22:03:48.822Z,123.82
2019-03-30T22:06:19.064Z,134.30
2019-03-30T22:08:50.361Z,128.23
2019-03-30T22:11:20.187Z,130.15
2019-03-30T22:13:50.205Z,124.27
2019-03-30T22:19:09.032Z,135.18
2019-03-30T22:21:38.928Z,141.53
2019-03-30T22:24:11.539Z,126.95
2019-03-30T22:26:41.809Z,121.95
2019-03-30T22:29:11.393Z,127.27
2019-03-30T22:31:41.378Z,137.00
2019-03-30T22:34:13.602Z,135.48
2019-03-30T22:36:44.041Z,141.55
2019-03-30T22:39:14.466Z,132.52
2019-03-30T22:41:44.867Z,128.15
2019-03-30T22:44:14.963Z,140.95
2019-03-30T22:46:45.692Z,145.45
2019-03-30T22:49:15.541Z,155.43
2019-03-30T22:51:45.419Z,141.40
2019-03-30T22:54:15.214Z,136.12
2019-03-30T22:56:45.008Z,128.78
2019-03-30T22:59:14.908Z,136.18
2019-03-30T23:01:44.794Z,128.45
2019-03-30T23:04:15.072Z,132.18
2019-03-30T23:06:45.432Z,130.15
2019-03-30T23:09:15.294Z,142.03
2019-03-30T23:11:45.680Z,146.05
2019-03-30T23:14:17.418Z,142.68
2019-03-30T23:16:47.059Z,138.75
2019-03-30T23:19:16.856Z,143.57
2019-03-30T23:21:46.486Z,130.60
2019-03-30T23:24:16.369Z,134.72
2019-03-30T23:26:48.660Z,118.90
2019-03-30T23:29:18.427Z,115.08
2019-03-30T23:31:48.078Z,117.60
2019-03-30T23:34:17.898Z,107.80
2019-03-30T23:36:47.601Z,97.55
2019-03-30T23:39:17.260Z,83.90
2019-03-30T23:41:47.071Z,82.65
2019-03-30T23:44:16.746Z,78.95
2019-03-30T23:46:46.392Z,85.55
2019-03-30T23:49:16.170Z,87.95
2019-03-30T23:51:45.975Z,86.30
2019-03-30T23:54:17.140Z,86.92
2019-03-30T23:56:46.814Z,82.57
2019-03-30T23:59:16.446Z,79.58
